Tropical Cyclones
[Index]
Main Index Home Page Stock Weather Photos Extreme Storms Discussion Storm News and Storm Chasing Reports Tropical Cyclones / Hurricanes / Typhoons Weather Data and Links Wild Fires / Bushfires Weather Observation Techniques Weather Picture Catalogue Tornado Pictures and Reports Stock Video Footage and DVDs for sale
Season 1997-1998 Tropical Cyclone WES Track Map
Season 1997-1998 Summaries (Operational Data): [AU] [SIO] [SPAC] [SH]
<<- Previous TC | 1997-1998 Season | Next TC ->>

click for intensity scale information  Lat/long Grid: Show Hide

 Date Labels: Show Hide

Operational Tropical Cyclone Data

Name: WES
Number: 9819

31 Jan 1998 06:00 UTC to 05 Feb 1998 00:00 UTC

    date/time    lat    long     hPa   cat  kts
1998-01-31 06   12.0   173.0W   1000         30          
1998-01-31 12   12.5   173.0W   1000         30          
1998-01-31 18   12.5   172.0W    999         30          
1998-02-01 00   12.0   170.0W    998         30          
1998-02-01 06   11.7   168.5W    995    1    35          
1998-02-01 12   12.0   166.7W    990    1    40          
1998-02-01 18   12.3   165.7W    990    1    40          
1998-02-02 00   13.7   164.2W    987    1    45          
1998-02-02 06   12.5   163.1W    987    1    45          
1998-02-02 12   13.1   161.9W    987    1    45          
1998-02-02 18   14.0   161.5W    987    1    45          
1998-02-03 00   14.8   160.3W    987    1    45          
1998-02-03 06   15.5   160.0W    987    1    45          
1998-02-03 12   16.2   159.3W    987    1    45          
1998-02-03 18   16.6   158.9W    987    1    45          
1998-02-04 00   17.0   158.5W    990    1    40          
1998-02-04 06   16.9   158.7W    990    1    40          
1998-02-04 12   17.5   158.6W    995    1    35          
1998-02-04 18   17.0   158.0W    995    1    35          
1998-02-05 00   17.0   159.0W    997         30          
Winds are 10-min average.

Tropical cyclone tracks developed by Michael Bath using operational warnings and advisories and Google Maps.


[Australian Severe Weather index] [Copyright Notice] [Email Contacts] [Search This Site] [Privacy Policy]
Document: tropical_cyclone_wes.htm Updated: 4 September 2016